Time;durP1;ratioP1;P1;durP2;ratioP2;P2;SDS_P1;SDS_P2;PMS_P1;PMS_P2;Temp;Humidity;BMP_temperature;BMP_pressure;BME280_temperature;BME280_humidity;BME280_pressure;Samples;Min_cycle;Max_cycle;Signal;HPM_P1;HPM_P2
2022/03/15 00:00:20;;;;;;;11.77;4.70;;;5.10;99.90;;;;;;5036259;28;20056;-70
2022/03/15 00:02:46;;;;;;;9.65;4.18;;;4.60;99.90;;;;;;5035554;28;20095;-70
2022/03/15 00:05:12;;;;;;;11.00;4.32;;;4.50;99.90;;;;;;5036984;28;20120;-70
2022/03/15 00:07:38;;;;;;;12.75;4.78;;;4.80;99.90;;;;;;5034914;28;20459;-70
2022/03/15 00:10:05;;;;;;;8.55;4.60;;;4.50;99.90;;;;;;5036593;28;20085;-70
2022/03/15 00:12:31;;;;;;;10.82;5.28;;;4.50;99.90;;;;;;5036024;28;20054;-70
2022/03/15 00:14:57;;;;;;;13.23;5.55;;;4.50;99.90;;;;;;5035574;28;20048;-70
2022/03/15 00:17:23;;;;;;;11.18;5.50;;;4.50;99.90;;;;;;5035323;28;20485;-70
2022/03/15 00:19:49;;;;;;;10.70;6.13;;;4.90;99.90;;;;;;5035913;28;20378;-70
2022/03/15 00:22:16;;;;;;;13.27;7.05;;;4.50;99.90;;;;;;5036317;28;20045;-70
2022/03/15 00:24:42;;;;;;;14.68;6.90;;;4.50;99.90;;;;;;5036060;28;20053;-70
2022/03/15 00:27:10;;;;;;;13.07;6.82;;;4.50;99.90;;;;;;5035760;28;20052;-70
2022/03/15 00:29:38;;;;;;;11.00;6.45;;;5.30;99.90;;;;;;5034231;28;20147;-70
2022/03/15 00:32:05;;;;;;;12.95;6.03;;;4.60;99.90;;;;;;5035627;28;20056;-70
2022/03/15 00:34:31;;;;;;;13.30;6.43;;;4.60;99.90;;;;;;5036056;28;20075;-70
2022/03/15 00:36:56;;;;;;;10.57;6.18;;;4.90;99.90;;;;;;5035590;28;20541;-70
2022/03/15 00:39:22;;;;;;;12.18;6.35;;;5.00;99.90;;;;;;5035559;28;20052;-70
2022/03/15 00:41:48;;;;;;;12.50;5.95;;;4.80;99.90;;;;;;5017904;28;20042;-70
2022/03/15 00:44:13;;;;;;;10.50;5.95;;;5.50;99.90;;;;;;5035723;28;20049;-70
2022/03/15 00:46:39;;;;;;;13.02;5.93;;;4.80;99.90;;;;;;5018639;28;20462;-70
2022/03/15 00:49:05;;;;;;;10.85;5.57;;;4.60;99.90;;;;;;5034423;28;20130;-70
2022/03/15 00:51:34;;;;;;;9.07;5.22;;;5.50;99.90;;;;;;5035370;28;20045;-70
2022/03/15 00:54:00;;;;;;;9.77;5.38;;;4.60;99.90;;;;;;5033757;28;20042;-71
2022/03/15 00:56:26;;;;;;;10.40;5.55;;;4.80;99.90;;;;;;5035271;28;20045;-70
2022/03/15 00:58:51;;;;;;;9.07;5.10;;;4.40;99.90;;;;;;5018000;28;20061;-70
2022/03/15 01:01:17;;;;;;;11.57;5.32;;;4.70;99.90;;;;;;5034981;28;20042;-71
2022/03/15 01:03:43;;;;;;;9.73;5.43;;;4.90;99.90;;;;;;5035179;28;20402;-70
2022/03/15 01:06:09;;;;;;;14.43;6.10;;;5.30;99.90;;;;;;5034933;28;20041;-70
2022/03/15 01:08:35;;;;;;;13.88;5.70;;;5.40;99.90;;;;;;5035038;28;20058;-70
2022/03/15 01:11:03;;;;;;;11.93;6.70;;;4.50;99.90;;;;;;5034176;28;20052;-70
2022/03/15 01:13:29;;;;;;;16.35;6.15;;;5.10;99.90;;;;;;5034897;28;20133;-70
2022/03/15 01:15:55;;;;;;;12.88;5.63;;;4.50;99.90;;;;;;5034910;28;20180;-70
2022/03/15 01:18:20;;;;;;;13.82;5.93;;;4.80;99.90;;;;;;5035645;28;20073;-70
2022/03/15 01:20:47;;;;;;;18.10;6.70;;;4.60;99.90;;;;;;5033596;28;20448;-70
2022/03/15 01:23:13;;;;;;;12.60;6.07;;;5.40;99.90;;;;;;5035181;28;20049;-70
2022/03/15 01:25:39;;;;;;;13.77;6.43;;;5.30;99.90;;;;;;5033736;28;20393;-70
2022/03/15 01:28:05;;;;;;;12.07;6.47;;;5.00;99.90;;;;;;5034343;28;20049;-70
2022/03/15 01:30:31;;;;;;;15.18;6.85;;;4.90;99.90;;;;;;5016795;28;20383;-70
2022/03/15 01:32:57;;;;;;;16.35;7.10;;;5.00;99.90;;;;;;5017169;28;20402;-70
2022/03/15 01:35:23;;;;;;;10.45;6.35;;;5.10;99.90;;;;;;5034581;28;20069;-70
2022/03/15 01:37:49;;;;;;;12.85;7.05;;;5.10;99.90;;;;;;5034722;28;20393;-70
2022/03/15 01:40:15;;;;;;;14.10;7.45;;;4.80;99.90;;;;;;5034728;28;20095;-70
2022/03/15 01:42:41;;;;;;;13.32;7.07;;;4.80;99.90;;;;;;5034364;28;20041;-70
2022/03/15 01:45:07;;;;;;;10.15;6.78;;;5.10;99.90;;;;;;5032915;28;20072;-70
2022/03/15 01:47:33;;;;;;;17.10;8.02;;;4.80;99.90;;;;;;5033869;28;20041;-70
2022/03/15 01:49:59;;;;;;;15.90;7.95;;;5.30;99.90;;;;;;5034812;28;20593;-70
2022/03/15 01:52:25;;;;;;;15.63;7.85;;;5.00;99.90;;;;;;5034047;28;20072;-70
2022/03/15 01:54:52;;;;;;;14.90;8.07;;;5.40;99.90;;;;;;5034795;28;20081;-70
2022/03/15 01:57:18;;;;;;;15.75;7.93;;;5.10;99.90;;;;;;5033817;28;20497;-70
2022/03/15 01:59:44;;;;;;;14.50;7.47;;;5.10;99.90;;;;;;5033152;28;20046;-70
2022/03/15 02:02:10;;;;;;;14.27;7.20;;;5.70;99.90;;;;;;5034897;28;20064;-70
2022/03/15 02:04:36;;;;;;;13.18;7.63;;;5.40;99.90;;;;;;5034212;28;20045;-70
2022/03/15 02:07:05;;;;;;;16.23;8.43;;;5.60;99.90;;;;;;5034607;28;20041;-70
2022/03/15 02:09:31;;;;;;;11.93;7.32;;;5.00;99.90;;;;;;5034843;28;20059;-70
2022/03/15 02:11:57;;;;;;;15.25;8.00;;;5.30;99.90;;;;;;5034913;28;20049;-70
2022/03/15 02:14:23;;;;;;;12.65;8.40;;;5.40;99.90;;;;;;5034299;28;20143;-71
2022/03/15 02:16:48;;;;;;;18.15;8.65;;;4.80;99.90;;;;;;5033841;28;20081;-71
2022/03/15 02:19:14;;;;;;;13.77;8.73;;;5.00;99.90;;;;;;5034394;28;20092;-71
2022/03/15 02:21:40;;;;;;;14.43;9.18;;;4.80;99.90;;;;;;5033755;28;20132;-70
2022/03/15 02:24:06;;;;;;;11.75;7.95;;;4.80;99.90;;;;;;5033695;28;20144;-70
2022/03/15 02:26:32;;;;;;;14.30;8.82;;;4.80;99.90;;;;;;5033395;28;20530;-70
2022/03/15 02:28:58;;;;;;;15.25;8.30;;;5.10;99.90;;;;;;5033542;28;20092;-69
2022/03/15 02:31:24;;;;;;;13.32;8.90;;;4.80;99.90;;;;;;5033656;28;20543;-70
2022/03/15 02:33:50;;;;;;;18.63;9.38;;;5.00;99.90;;;;;;5033692;28;20045;-70
2022/03/15 02:36:16;;;;;;;14.95;8.63;;;4.60;99.90;;;;;;5033596;28;20055;-71
2022/03/15 02:38:44;;;;;;;15.25;8.27;;;4.80;99.90;;;;;;5033574;28;20041;-70
2022/03/15 02:41:09;;;;;;;15.88;9.02;;;4.60;99.90;;;;;;5033554;28;20045;-70
2022/03/15 02:43:35;;;;;;;19.90;9.23;;;4.50;99.90;;;;;;5033589;28;20125;-70
2022/03/15 02:46:01;;;;;;;12.95;8.38;;;4.80;99.90;;;;;;5033688;28;20041;-70
2022/03/15 02:48:26;;;;;;;15.25;8.68;;;4.70;99.90;;;;;;5034017;28;20496;-70
2022/03/15 02:50:52;;;;;;;17.77;9.30;;;5.00;99.90;;;;;;5033467;28;20054;-70
2022/03/15 02:53:18;;;;;;;15.73;8.60;;;4.90;99.90;;;;;;5033871;28;20393;-70
2022/03/15 02:55:46;;;;;;;18.08;9.02;;;4.90;99.90;;;;;;5032789;28;20056;-70
2022/03/15 02:58:12;;;;;;;17.85;8.63;;;4.80;99.90;;;;;;5036860;28;20398;-70
2022/03/15 03:00:39;;;;;;;14.98;9.23;;;4.70;99.90;;;;;;5037440;28;20049;-70
2022/03/15 03:03:04;;;;;;;11.63;8.13;;;4.70;99.90;;;;;;5037380;28;20056;-71
2022/03/15 03:05:30;;;;;;;16.42;8.98;;;4.80;99.90;;;;;;5037653;28;20049;-70
2022/03/15 03:07:56;;;;;;;15.13;9.00;;;4.50;99.90;;;;;;5035709;28;20473;-70
2022/03/15 03:10:22;;;;;;;15.45;9.27;;;4.80;99.90;;;;;;5036273;28;20053;-70
2022/03/15 03:12:48;;;;;;;17.88;9.57;;;4.60;99.90;;;;;;5037173;28;20045;-70
2022/03/15 03:15:15;;;;;;;13.70;9.00;;;4.50;99.90;;;;;;5037086;28;20045;-70
2022/03/15 03:17:41;;;;;;;15.85;9.32;;;4.60;99.90;;;;;;5037098;28;20041;-70
2022/03/15 03:20:13;;;;;;;16.92;9.85;;;4.50;99.90;;;;;;5036347;28;20608;-70
2022/03/15 03:22:41;;;;;;;14.93;9.50;;;5.10;99.90;;;;;;5036686;28;20064;-70
2022/03/15 03:25:08;;;;;;;14.73;9.07;;;4.50;99.90;;;;;;5035970;28;20059;-70
2022/03/15 03:27:33;;;;;;;19.02;9.98;;;4.60;99.90;;;;;;5035663;28;20057;-70
2022/03/15 03:29:59;;;;;;;12.52;9.63;;;4.80;99.90;;;;;;5035850;28;20046;-70
2022/03/15 03:32:26;;;;;;;16.40;10.27;;;5.00;99.90;;;;;;5036808;28;20540;-71
2022/03/15 03:34:53;;;;;;;14.98;9.93;;;5.20;99.90;;;;;;5037321;28;20397;-70
2022/03/15 03:37:18;;;;;;;14.95;9.63;;;4.70;99.90;;;;;;5037308;28;20047;-71
2022/03/15 03:39:44;;;;;;;15.48;10.10;;;4.90;99.90;;;;;;5036721;28;20140;-70
2022/03/15 03:42:10;;;;;;;18.67;10.55;;;5.10;99.90;;;;;;5036681;28;20045;-70
2022/03/15 03:44:36;;;;;;;17.80;11.02;;;4.90;99.90;;;;;;5036596;28;20049;-70
2022/03/15 03:47:03;;;;;;;19.77;10.15;;;5.20;99.90;;;;;;5035291;28;20041;-70
2022/03/15 03:49:31;;;;;;;17.90;10.15;;;4.90;99.90;;;;;;5036401;28;20445;-70
2022/03/15 03:51:58;;;;;;;18.27;10.30;;;5.00;99.90;;;;;;5036397;28;20056;-69
2022/03/15 03:54:24;;;;;;;16.83;11.32;;;4.80;99.90;;;;;;5035205;28;20132;-70
2022/03/15 03:56:50;;;;;;;19.77;11.05;;;5.10;99.90;;;;;;5036397;28;20140;-70
2022/03/15 03:59:17;;;;;;;13.75;10.82;;;5.70;99.90;;;;;;5036336;28;20056;-70
2022/03/15 04:01:43;;;;;;;17.83;9.70;;;5.10;99.90;;;;;;5035112;28;20375;-70
2022/03/15 04:04:09;;;;;;;18.30;9.90;;;5.50;99.90;;;;;;5036762;28;20084;-70
2022/03/15 04:06:39;;;;;;;15.13;9.95;;;5.70;99.90;;;;;;5036700;28;20084;-70
2022/03/15 04:09:06;;;;;;;16.63;11.07;;;5.00;99.90;;;;;;5035654;28;20052;-70
2022/03/15 04:11:32;;;;;;;16.02;10.10;;;5.00;99.90;;;;;;5036381;28;20099;-70
2022/03/15 04:13:59;;;;;;;15.20;10.15;;;4.90;99.90;;;;;;5036048;28;20053;-70
2022/03/15 04:16:28;;;;;;;13.88;9.85;;;4.90;99.90;;;;;;5036847;28;20056;-70
2022/03/15 04:18:54;;;;;;;23.17;11.10;;;4.80;99.90;;;;;;5036010;28;20138;-71
2022/03/15 04:21:24;;;;;;;16.48;10.95;;;5.10;99.90;;;;;;5035914;28;20091;-70
2022/03/15 04:23:51;;;;;;;17.38;10.77;;;5.10;99.90;;;;;;5035907;28;20049;-69
2022/03/15 04:26:17;;;;;;;17.75;10.90;;;4.90;99.90;;;;;;5035780;28;20048;-70
2022/03/15 04:28:42;;;;;;;23.30;11.52;;;5.10;99.90;;;;;;5035763;28;20072;-70
2022/03/15 04:31:08;;;;;;;17.75;11.63;;;5.10;99.90;;;;;;5036361;28;20470;-70
2022/03/15 04:33:34;;;;;;;18.67;11.48;;;5.00;99.90;;;;;;5035983;28;20456;-70
2022/03/15 04:35:59;;;;;;;20.73;11.90;;;4.90;99.90;;;;;;5035657;28;20045;-70
2022/03/15 04:38:25;;;;;;;19.48;11.52;;;4.70;99.90;;;;;;5035639;28;20132;-70
2022/03/15 04:40:51;;;;;;;20.17;11.98;;;5.30;99.90;;;;;;5034429;28;20095;-70
2022/03/15 04:43:17;;;;;;;18.85;12.18;;;4.90;99.90;;;;;;5036112;28;20046;-71
2022/03/15 04:45:43;;;;;;;19.33;11.27;;;4.80;99.90;;;;;;5035189;28;20092;-70
2022/03/15 04:48:09;;;;;;;23.27;12.25;;;5.00;99.90;;;;;;5035632;28;20053;-70
2022/03/15 04:50:34;;;;;;;17.42;11.60;;;4.90;99.90;;;;;;5035332;28;20046;-71
2022/03/15 04:53:00;;;;;;;19.95;12.48;;;5.30;99.90;;;;;;5018068;28;20053;-70
2022/03/15 04:55:26;;;;;;;23.00;13.45;;;5.20;99.90;;;;;;5035311;28;20041;-70
2022/03/15 04:57:52;;;;;;;22.40;12.85;;;5.20;99.90;;;;;;5036031;28;20116;-71
2022/03/15 05:00:18;;;;;;;20.77;13.10;;;5.90;99.90;;;;;;5035145;28;20060;-71
2022/03/15 05:02:45;;;;;;;18.50;12.88;;;5.20;99.90;;;;;;5034844;28;20057;-71
2022/03/15 05:05:13;;;;;;;18.90;12.48;;;5.40;99.90;;;;;;5034196;28;20057;-71
2022/03/15 05:07:39;;;;;;;22.85;12.90;;;5.20;99.90;;;;;;5035587;28;20107;-70
2022/03/15 05:12:50;;;;;;;24.08;12.85;;;5.30;99.90;;;;;;5035055;28;20092;-70
2022/03/15 05:15:16;;;;;;;19.00;13.23;;;5.20;99.90;;;;;;5033629;28;20050;-71
2022/03/15 05:17:41;;;;;;;22.02;12.70;;;5.30;99.90;;;;;;5035440;28;20044;-70
2022/03/15 05:20:08;;;;;;;22.15;12.77;;;5.30;99.90;;;;;;5034838;28;20046;-70
2022/03/15 05:22:33;;;;;;;19.33;12.07;;;5.30;99.90;;;;;;5034673;28;20052;-70
2022/03/15 05:25:00;;;;;;;21.70;13.10;;;5.30;99.90;;;;;;5035250;28;20045;-70
2022/03/15 05:27:26;;;;;;;19.13;13.10;;;5.40;99.90;;;;;;5033218;28;20045;-70
2022/03/15 05:29:53;;;;;;;19.70;11.93;;;5.90;99.90;;;;;;5033389;28;20053;-70
2022/03/15 05:32:19;;;;;;;20.17;12.32;;;5.40;99.90;;;;;;5034603;28;20053;-70
2022/03/15 05:34:45;;;;;;;19.15;12.65;;;5.30;99.90;;;;;;5034334;28;20052;-71
2022/03/15 05:37:11;;;;;;;19.58;11.60;;;5.60;99.90;;;;;;5033038;28;20095;-70
2022/03/15 05:39:37;;;;;;;20.27;11.95;;;5.50;99.90;;;;;;5016922;28;20049;-70
2022/03/15 05:42:03;;;;;;;20.58;11.60;;;6.10;99.90;;;;;;5034947;28;20049;-70
2022/03/15 05:44:29;;;;;;;19.85;11.32;;;5.50;99.90;;;;;;5034452;28;20049;-70
2022/03/15 05:46:55;;;;;;;19.98;11.95;;;5.60;99.90;;;;;;5033218;28;20095;-70
2022/03/15 05:49:21;;;;;;;18.33;11.30;;;6.30;99.90;;;;;;5034302;28;20132;-70
2022/03/15 05:51:47;;;;;;;22.02;11.75;;;5.60;99.90;;;;;;5034224;28;20128;-70
2022/03/15 05:54:12;;;;;;;20.17;12.00;;;5.70;99.90;;;;;;5034125;28;20053;-69
2022/03/15 05:56:39;;;;;;;18.67;10.98;;;5.60;99.90;;;;;;5034424;28;20041;-70
2022/03/15 05:59:06;;;;;;;18.85;11.38;;;5.80;99.90;;;;;;5034364;28;20045;-70
2022/03/15 06:01:31;;;;;;;22.17;12.20;;;5.60;99.90;;;;;;5034058;28;20049;-70
2022/03/15 06:03:57;;;;;;;20.90;12.10;;;6.00;99.90;;;;;;5034594;28;20060;-70
2022/03/15 06:06:24;;;;;;;20.15;11.55;;;5.70;99.90;;;;;;5033284;28;20124;-70
2022/03/15 06:08:51;;;;;;;22.88;12.88;;;6.30;99.90;;;;;;5034034;28;20057;-70
2022/03/15 06:11:19;;;;;;;21.15;11.85;;;6.10;99.90;;;;;;5033762;28;20490;-70
2022/03/15 06:13:45;;;;;;;22.88;12.25;;;5.70;99.90;;;;;;5032854;28;20057;-70
2022/03/15 06:16:11;;;;;;;19.38;12.15;;;6.10;99.90;;;;;;5033942;28;20405;-70
2022/03/15 06:18:37;;;;;;;24.48;13.68;;;5.70;99.90;;;;;;5017257;28;20041;-70
2022/03/15 06:21:03;;;;;;;21.40;12.60;;;5.80;99.90;;;;;;5032936;28;20056;-70
2022/03/15 06:23:29;;;;;;;24.20;14.13;;;5.60;99.90;;;;;;5033750;28;20050;-70
2022/03/15 06:25:55;;;;;;;21.48;13.98;;;6.00;99.90;;;;;;5033748;28;20049;-70
2022/03/15 06:28:21;;;;;;;22.38;13.50;;;5.90;99.90;;;;;;5033504;28;20049;-71
2022/03/15 06:30:46;;;;;;;24.20;13.52;;;5.60;99.90;;;;;;5033987;28;20497;-71
2022/03/15 06:33:13;;;;;;;26.85;13.65;;;5.70;99.90;;;;;;5033920;28;20385;-70
2022/03/15 06:35:39;;;;;;;23.48;12.98;;;6.30;99.90;;;;;;5032925;28;20049;-70
2022/03/15 06:38:05;;;;;;;25.45;13.80;;;5.70;99.90;;;;;;5016253;28;20115;-70
2022/03/15 06:40:33;;;;;;;25.63;14.43;;;6.00;99.90;;;;;;5032862;28;20540;-70
2022/03/15 06:42:59;;;;;;;24.15;14.68;;;5.80;99.90;;;;;;5033570;28;20052;-70
2022/03/15 06:45:26;;;;;;;27.58;15.05;;;5.70;99.90;;;;;;5032560;28;20539;-70
2022/03/15 06:47:52;;;;;;;27.50;15.82;;;5.80;99.90;;;;;;5033397;28;20496;-70
2022/03/15 06:50:18;;;;;;;25.50;14.93;;;5.80;99.90;;;;;;5033490;28;20132;-70
2022/03/15 06:52:45;;;;;;;26.45;15.65;;;6.00;99.90;;;;;;5033375;28;20474;-70
2022/03/15 06:55:11;;;;;;;25.70;16.27;;;5.90;99.90;;;;;;5033379;28;20120;-70
2022/03/15 06:57:38;;;;;;;27.52;15.05;;;5.80;99.90;;;;;;5033386;28;20077;-70
2022/03/15 07:00:06;;;;;;;28.70;15.98;;;5.90;99.90;;;;;;5032391;28;20041;-70
2022/03/15 07:02:32;;;;;;;29.13;15.88;;;6.00;99.90;;;;;;5033367;28;20064;-70
2022/03/15 07:04:58;;;;;;;26.73;16.25;;;6.00;99.90;;;;;;5034126;28;20045;-70
2022/03/15 07:07:23;;;;;;;25.75;15.70;;;6.00;99.90;;;;;;5033258;28;20038;-70
2022/03/15 07:09:49;;;;;;;27.75;16.33;;;6.30;99.90;;;;;;5033334;28;20049;-70
2022/03/15 07:12:16;;;;;;;31.45;15.77;;;6.40;99.90;;;;;;5032323;28;20474;-70
2022/03/15 07:14:43;;;;;;;28.77;15.65;;;6.10;99.90;;;;;;5033178;28;20129;-70
2022/03/15 07:17:09;;;;;;;24.88;14.70;;;6.50;99.90;;;;;;5033745;28;20363;-70
2022/03/15 07:19:35;;;;;;;31.58;16.63;;;6.10;99.90;;;;;;5033231;28;20092;-70
2022/03/15 07:22:00;;;;;;;24.92;15.68;;;6.60;99.90;;;;;;5033456;28;20088;-70
2022/03/15 07:24:26;;;;;;;27.42;16.25;;;6.20;99.90;;;;;;5032899;28;20057;-70
2022/03/15 07:26:52;;;;;;;28.63;16.58;;;6.30;99.90;;;;;;5032268;28;20037;-70
2022/03/15 07:29:17;;;;;;;31.05;16.15;;;6.40;99.90;;;;;;5032585;28;20058;-70
2022/03/15 07:31:44;;;;;;;33.83;17.02;;;6.40;99.90;;;;;;5033387;28;20085;-70
2022/03/15 07:34:09;;;;;;;29.33;16.83;;;6.30;99.90;;;;;;5033336;28;20532;-70
2022/03/15 07:36:35;;;;;;;30.90;17.58;;;6.40;99.90;;;;;;5031701;28;20053;-70
2022/03/15 07:39:03;;;;;;;32.15;17.58;;;6.50;99.90;;;;;;5033552;28;20054;-70
2022/03/15 07:41:30;;;;;;;28.88;17.30;;;6.30;99.90;;;;;;5033036;28;20057;-70
2022/03/15 07:43:56;;;;;;;37.88;17.75;;;6.40;99.90;;;;;;5035610;28;20061;-70
2022/03/15 07:46:22;;;;;;;30.73;17.58;;;6.50;99.90;;;;;;5036562;28;20393;-70
2022/03/15 07:48:47;;;;;;;34.47;18.73;;;6.60;99.90;;;;;;5036657;28;20049;-70
2022/03/15 07:51:13;;;;;;;33.35;18.10;;;6.50;99.90;;;;;;5036333;28;20089;-70
2022/03/15 07:53:39;;;;;;;34.53;18.10;;;6.60;99.90;;;;;;5035168;28;20045;-70
2022/03/15 07:56:04;;;;;;;33.97;18.67;;;6.90;99.90;;;;;;5036431;28;20076;-70
2022/03/15 07:58:30;;;;;;;31.50;18.08;;;6.60;99.90;;;;;;5036352;28;20057;-70
2022/03/15 08:00:57;;;;;;;33.40;18.17;;;6.60;99.90;;;;;;5036938;28;20046;-70
2022/03/15 08:03:24;;;;;;;33.13;17.92;;;7.10;99.90;;;;;;5036303;28;20056;-70
2022/03/15 08:05:50;;;;;;;33.10;17.80;;;6.70;99.90;;;;;;5037029;28;20103;-70
2022/03/15 08:08:16;;;;;;;30.48;17.77;;;6.70;99.90;;;;;;5036128;28;20045;-71
2022/03/15 08:10:43;;;;;;;40.28;18.38;;;6.70;99.90;;;;;;5036243;28;20060;-70
2022/03/15 08:13:09;;;;;;;32.10;17.88;;;6.80;99.90;;;;;;5036110;28;20124;-70
2022/03/15 08:15:35;;;;;;;29.58;17.20;;;6.80;99.90;;;;;;5036126;28;20045;-70
2022/03/15 08:18:02;;;;;;;31.98;17.02;;;6.90;99.90;;;;;;5018632;28;20041;-70
2022/03/15 08:20:33;;;;;;;31.02;18.20;;;6.90;99.90;;;;;;5035072;28;20058;-70
2022/03/15 08:23:02;;;;;;;31.45;17.13;;;6.90;99.90;;;;;;5035636;28;20564;-70
2022/03/15 08:25:28;;;;;;;31.42;17.42;;;7.30;99.90;;;;;;5036020;28;20107;-70
2022/03/15 08:27:54;;;;;;;31.67;17.02;;;7.00;99.90;;;;;;5036459;28;20042;-70
2022/03/15 08:30:20;;;;;;;33.65;16.67;;;7.10;99.90;;;;;;5035699;28;20046;-69
2022/03/15 08:32:46;;;;;;;29.83;18.45;;;7.00;99.90;;;;;;5035611;28;20555;-69
2022/03/15 08:35:12;;;;;;;30.67;17.25;;;7.10;99.90;;;;;;5035704;28;20489;-71
2022/03/15 08:37:38;;;;;;;32.35;19.50;;;8.00;99.90;;;;;;5035093;28;20092;-70
2022/03/15 08:40:06;;;;;;;31.33;18.48;;;7.10;99.90;;;;;;5035849;28;20084;-70
2022/03/15 08:42:32;;;;;;;29.10;16.92;;;7.10;99.90;;;;;;5034763;28;20473;-70
2022/03/15 08:44:58;;;;;;;28.42;16.25;;;7.80;99.90;;;;;;5034454;28;20045;-69
2022/03/15 08:47:23;;;;;;;28.48;16.95;;;7.20;99.90;;;;;;5034341;28;20042;-70
2022/03/15 08:49:49;;;;;;;28.88;17.15;;;7.10;99.90;;;;;;5035647;28;20053;-70
2022/03/15 08:52:15;;;;;;;25.60;16.27;;;7.10;99.90;;;;;;5035417;28;20041;-68
2022/03/15 08:54:40;;;;;;;28.33;17.55;;;7.20;99.90;;;;;;5033864;28;20045;-71
2022/03/15 08:57:07;;;;;;;29.80;18.00;;;7.40;99.90;;;;;;5034492;28;20050;-70
2022/03/15 08:59:33;;;;;;;29.63;18.30;;;7.30;99.90;;;;;;5035893;28;20053;-72
2022/03/15 09:02:00;;;;;;;26.75;18.20;;;7.30;99.90;;;;;;5035026;28;20413;-71
2022/03/15 09:04:26;;;;;;;30.55;18.60;;;7.30;99.90;;;;;;5035777;28;20049;-71
2022/03/15 09:06:52;;;;;;;30.15;18.42;;;7.30;99.90;;;;;;5034115;28;20390;-72
2022/03/15 09:09:21;;;;;;;28.75;17.50;;;7.40;99.90;;;;;;5034065;28;20053;-71
2022/03/15 09:11:47;;;;;;;28.73;17.77;;;7.40;99.90;;;;;;5034153;28;20042;-71
2022/03/15 09:14:14;;;;;;;27.52;17.45;;;7.40;99.90;;;;;;5034848;28;20047;-71
2022/03/15 09:16:40;;;;;;;29.13;17.75;;;7.50;99.90;;;;;;5033904;28;20033;-71
2022/03/15 09:19:08;;;;;;;32.08;18.25;;;7.60;99.90;;;;;;5034995;28;20056;-71
2022/03/15 09:21:34;;;;;;;27.77;17.85;;;7.50;99.90;;;;;;5034609;28;20072;-71
2022/03/15 09:24:00;;;;;;;28.58;16.80;;;8.10;99.90;;;;;;5035898;28;20049;-71
2022/03/15 09:26:26;;;;;;;28.88;17.98;;;7.50;99.90;;;;;;5035578;28;20049;-71
2022/03/15 09:28:52;;;;;;;27.00;17.77;;;7.50;99.90;;;;;;5033867;28;20053;-71
2022/03/15 09:31:20;;;;;;;29.92;18.65;;;7.60;99.90;;;;;;5034645;28;20440;-71
2022/03/15 09:33:45;;;;;;;27.73;17.30;;;7.70;99.90;;;;;;5034467;28;20490;-72
2022/03/15 09:36:15;;;;;;;28.45;18.83;;;7.70;99.90;;;;;;5033486;28;20046;-72
2022/03/15 09:38:42;;;;;;;28.00;18.23;;;7.70;99.90;;;;;;5033319;28;20056;-70
2022/03/15 09:41:08;;;;;;;26.52;18.05;;;7.80;99.90;;;;;;5034383;28;20063;-67
2022/03/15 09:43:40;;;;;;;28.13;18.08;;;7.80;99.90;;;;;;5033268;28;20041;-68
2022/03/15 09:46:08;;;;;;;29.38;17.48;;;8.00;99.90;;;;;;5033768;28;20080;-68
2022/03/15 09:48:35;;;;;;;25.95;17.55;;;7.90;99.90;;;;;;5033709;28;20071;-68
2022/03/15 09:51:06;;;;;;;30.58;18.42;;;7.90;99.90;;;;;;5033748;28;20049;-67
2022/03/15 09:53:37;;;;;;;30.10;18.02;;;7.90;99.90;;;;;;5033839;28;20049;-68
2022/03/15 09:56:03;;;;;;;31.23;19.13;;;8.00;99.90;;;;;;5032889;28;20089;-68
2022/03/15 09:58:29;;;;;;;28.25;18.42;;;8.00;99.90;;;;;;5033739;28;20045;-67
2022/03/15 10:00:57;;;;;;;31.70;18.65;;;8.40;99.90;;;;;;5034177;28;20543;-68
2022/03/15 10:03:23;;;;;;;29.00;18.13;;;8.00;99.90;;;;;;5033501;28;20045;-67
2022/03/15 10:05:50;;;;;;;27.08;18.52;;;8.20;99.90;;;;;;5015678;28;20068;-68
2022/03/15 10:08:20;;;;;;;29.42;17.73;;;8.20;99.90;;;;;;5033649;28;20052;-69
2022/03/15 10:10:51;;;;;;;26.58;18.55;;;8.10;99.90;;;;;;5031438;28;20045;-68
2022/03/15 10:13:17;;;;;;;29.90;18.70;;;8.20;99.90;;;;;;5031811;28;20583;-67
2022/03/15 10:15:59;;;;;;;24.92;17.88;;;8.20;99.90;;;;;;5032208;28;20087;-68
2022/03/15 10:18:25;;;;;;;26.55;18.42;;;8.20;99.90;;;;;;5033308;28;20528;-68
2022/03/15 10:20:52;;;;;;;28.60;18.17;;;8.20;99.90;;;;;;5032272;28;20098;-68
2022/03/15 10:23:19;;;;;;;28.20;18.38;;;8.30;99.90;;;;;;5033038;28;20056;-68
2022/03/15 10:25:48;;;;;;;30.48;19.23;;;8.30;99.90;;;;;;5033066;28;20520;-69
2022/03/15 10:28:15;;;;;;;27.85;19.30;;;8.30;99.90;;;;;;5033194;28;20187;-69
2022/03/15 10:30:42;;;;;;;28.15;18.85;;;8.30;99.90;;;;;;5031632;28;20057;-69
2022/03/15 10:33:08;;;;;;;28.73;19.02;;;8.40;99.90;;;;;;5032181;28;20050;-69
2022/03/15 10:35:40;;;;;;;28.23;17.50;;;8.90;99.90;;;;;;5032915;28;20049;-69
2022/03/15 10:38:07;;;;;;;28.45;18.60;;;8.40;99.90;;;;;;5032802;28;20053;-68
2022/03/15 10:40:41;;;;;;;28.15;18.45;;;8.50;99.90;;;;;;5032987;28;20141;-69
2022/03/15 10:43:24;;;;;;;26.52;17.92;;;8.50;99.90;;;;;;5032443;28;20047;-69
2022/03/15 10:45:56;;;;;;;25.73;16.77;;;8.60;99.90;;;;;;5033044;28;20053;-68
2022/03/15 10:48:25;;;;;;;29.67;17.27;;;8.60;99.90;;;;;;5031764;28;20300;-68
2022/03/15 10:50:54;;;;;;;25.70;16.88;;;8.70;99.90;;;;;;5034053;28;20359;-68
2022/03/15 10:53:22;;;;;;;28.05;17.23;;;8.70;99.90;;;;;;5032476;28;20049;-69
2022/03/15 10:55:48;;;;;;;24.67;16.38;;;8.80;99.90;;;;;;5032798;28;20049;-69
2022/03/15 10:58:21;;;;;;;26.25;16.98;;;8.80;99.90;;;;;;5015283;28;20056;-68
2022/03/15 11:00:50;;;;;;;22.67;14.75;;;8.90;99.90;;;;;;5015232;28;20058;-68
2022/03/15 11:03:23;;;;;;;25.13;15.02;;;8.90;99.90;;;;;;5032966;28;20095;-68
2022/03/15 11:05:50;;;;;;;24.00;15.35;;;8.90;99.90;;;;;;5032755;28;20061;-68
2022/03/15 11:08:17;;;;;;;23.27;14.57;;;9.00;99.90;;;;;;5032485;28;20432;-68
2022/03/15 11:10:50;;;;;;;24.23;14.52;;;9.00;99.90;;;;;;5032673;28;20053;-70
2022/03/15 11:13:17;;;;;;;21.88;13.88;;;9.10;99.90;;;;;;5032372;28;20098;-68
2022/03/15 11:15:46;;;;;;;20.35;14.35;;;9.00;99.90;;;;;;5032619;28;20045;-67
2022/03/15 11:18:13;;;;;;;22.90;14.75;;;9.20;99.90;;;;;;5034211;28;20367;-69
2022/03/15 11:20:41;;;;;;;23.20;14.57;;;9.10;99.90;;;;;;5036498;28;20087;-68
2022/03/15 11:23:09;;;;;;;23.70;14.63;;;9.30;99.90;;;;;;5036573;28;20080;-68
2022/03/15 11:25:45;;;;;;;22.02;13.80;;;9.20;99.90;;;;;;5036336;28;20081;-68
2022/03/15 11:28:17;;;;;;;22.08;14.63;;;9.30;99.90;;;;;;5036473;28;20182;-67
2022/03/15 11:30:43;;;;;;;21.52;15.68;;;9.30;99.90;;;;;;5036242;28;20072;-68
2022/03/15 11:33:10;;;;;;;20.70;14.80;;;9.30;99.90;;;;;;5036187;28;20155;-68
2022/03/15 11:35:38;;;;;;;22.55;14.60;;;9.40;99.90;;;;;;5036049;28;20037;-68
2022/03/15 11:38:08;;;;;;;23.30;16.25;;;9.40;99.90;;;;;;5019251;28;20085;-68
2022/03/15 11:40:34;;;;;;;24.30;15.10;;;9.50;99.90;;;;;;5035920;28;20041;-69
2022/03/15 11:43:22;;;;;;;20.73;15.10;;;9.50;99.90;;;;;;5035208;28;20041;-68
2022/03/15 11:46:05;;;;;;;23.92;15.75;;;9.60;99.90;;;;;;5036395;28;20037;-68
2022/03/15 11:48:40;;;;;;;23.95;15.38;;;9.60;99.90;;;;;;5034985;28;20045;-68
2022/03/15 11:51:37;;;;;;;23.17;14.65;;;9.70;99.90;;;;;;5035065;28;20449;-68
2022/03/15 11:54:28;;;;;;;24.38;15.02;;;9.70;99.90;;;;;;5031238;28;20081;-69
2022/03/15 11:57:00;;;;;;;22.65;15.88;;;9.80;99.90;;;;;;5036303;28;20041;-68
2022/03/15 11:59:43;;;;;;;23.80;15.38;;;9.80;99.90;;;;;;5036709;28;20369;-69
2022/03/15 12:02:09;;;;;;;22.80;15.75;;;9.80;99.90;;;;;;5035447;28;20155;-69
2022/03/15 12:04:44;;;;;;;27.17;16.30;;;9.80;99.90;;;;;;5035493;28;20081;-68
2022/03/15 12:07:12;;;;;;;22.08;15.10;;;9.80;99.90;;;;;;5035899;28;20037;-68
2022/03/15 12:09:47;;;;;;;24.83;14.95;;;9.90;99.90;;;;;;5035651;28;20045;-69
2022/03/15 12:12:14;;;;;;;23.63;15.80;;;9.90;99.90;;;;;;5034560;28;20446;-68
2022/03/15 12:14:52;;;;;;;23.50;15.52;;;9.90;99.90;;;;;;5034579;28;20049;-68
2022/03/15 12:17:19;;;;;;;19.92;13.82;;;9.90;99.90;;;;;;5036622;28;20046;-68
2022/03/15 12:19:49;;;;;;;24.00;14.88;;;10.00;99.90;;;;;;5035623;28;20049;-68
2022/03/15 12:22:37;;;;;;;20.98;14.77;;;10.10;99.90;;;;;;5035224;28;20048;-68
2022/03/15 12:25:07;;;;;;;20.50;12.80;;;10.10;99.90;;;;;;5035264;28;20042;-68
2022/03/15 12:27:47;;;;;;;20.00;13.30;;;10.20;99.90;;;;;;5035258;28;20041;-68
2022/03/15 12:30:26;;;;;;;19.63;12.20;;;10.30;99.90;;;;;;5034227;28;20064;-69
2022/03/15 12:32:53;;;;;;;18.88;12.48;;;10.20;99.90;;;;;;5034478;28;20474;-68
2022/03/15 12:35:26;;;;;;;17.98;12.25;;;10.30;99.90;;;;;;5035188;28;20041;-68
2022/03/15 12:38:08;;;;;;;20.45;12.35;;;10.30;99.90;;;;;;5034582;28;20045;-68
2022/03/15 12:40:33;;;;;;;23.63;12.07;;;10.30;99.90;;;;;;5035007;28;20564;-69
2022/03/15 12:43:01;;;;;;;19.83;12.40;;;10.30;99.90;;;;;;5034812;28;20077;-68